• Join FlightAware (Why Join?)
  • Login
  • US Flag GB Flag 
15:10 EDT


 

Airport Tracker/Info


-or-


 

Live Flight TrackerFlight Track Log ✈ AAR214 ✈ 11-Aug-2013 ✈ RKSI / ICN - KSFO

Flight Track Log - Related Links

Times and Time Zones

All times are in EDT time to prevent confusion due to time zone crossing. See the AAR214 flight status page for this flight to view local times or setup timezone preferences in your user account.

Time Position Orientation Groundspeed Altitude Reporting Facility
EDT Latitude Longitude Course Direction KTS MPH feet Rate Location/Type
04:50 37.4834 127.3310 90° East  Level FlightAware Approximate
04:51 37.5051 127.5080 79° East  Level FlightAware Approximate
04:52 37.5226 127.6854 78° East  Level FlightAware Approximate
04:53 37.5518 127.8613 79° East  Level FlightAware Approximate
04:54 37.5797 128.0375 79° East  Level FlightAware Approximate
04:55 37.6086 128.2136 77° East  Level FlightAware Approximate
04:56 37.6379 128.3892 76° East  Level FlightAware Approximate
04:56 37.3200 126.9000 81° East 434 499 21,400  Level FlightAware
04:57 37.6645 128.5659 81° East  Level FlightAware Approximate
04:57 37.3180 126.9920 92° East 433 498 22,000  Level FlightAware
04:58 37.3170 127.0710 91° East 433 498 22,000 2,460 Level FlightAware
04:58 37.3770 127.1380 42° Northeast 426 490 24,300 2,520 Climbing FlightAware
04:58 37.4040 127.1980 60° Northeast 426 490 24,400 660 Climbing FlightAware
04:59 37.4360 127.2650 59° Northeast 429 494 25,100 1,440 Climbing FlightAware
05:00 37.4870 127.3780 60° Northeast 431 496 26,300 780 Climbing FlightAware
05:00 37.5180 127.4460 60° Northeast 431 496 26,300  Level FlightAware
05:01 37.5490 127.5130 60° Northeast 431 496 26,300  Level FlightAware
05:02 37.5800 127.5810 60° Northeast 431 496 26,300  Level FlightAware
05:02 37.6110 127.6480 60° Northeast 431 496 26,300  Level FlightAware
05:03 37.6410 127.7150 60° Northeast 431 496 26,300 300 Level FlightAware
05:05 37.8029 127.9508 79° East  Level Estimated
05:06 37.8961 128.0873 77° East  Level Estimated
05:07 37.9891 128.2241 76° East  Level Estimated
05:08 38.0819 128.3613 81° East  Level Estimated
05:09 38.1746 128.4989 72° East  Level Estimated
05:10 38.2672 128.6367 122° Southeast  Level Estimated
05:11 38.3596 128.7750 122° Southeast  Level Estimated
05:12 38.2290 128.8475 156° South  Level FlightAware Approximate
05:13 38.3211 128.9859 122° Southeast  Level Estimated
05:14 38.4132 129.1246 121° Southeast  Level Estimated
05:15 38.2990 129.2333 143° Southeast  Level FlightAware Approximate
05:16 38.1847 129.3417 143° Southeast  Level FlightAware Approximate
05:17 38.0704 129.4497 143° Southeast  Level FlightAware Approximate
05:18 37.9559 129.5574 143° Southeast  Level FlightAware Approximate
05:19 37.8414 129.6647 143° Southeast  Level FlightAware Approximate
05:20 37.7267 129.7717 144° Southeast  Level FlightAware Approximate
05:21 37.6119 129.8784 144° Southeast  Level FlightAware Approximate
05:22 37.7033 130.0166 122° Southeast  Level Estimated
05:23 37.5946 130.1329 140° Southeast  Level FlightAware Approximate
05:23 36.4960 131.0670 140° Southeast 517 595 33,000  Level FlightAware
05:23 36.4570 131.1810 113° Southeast 517 595 33,000  Level FlightAware
05:24 36.4240 131.2780 113° Southeast 518 596 33,000  Level FlightAware
05:24 36.4050 131.3640 105° East 519 597 33,000  Level FlightAware
05:25 36.3860 131.4600 104° East 519 597 33,000  Level FlightAware
05:26 36.4030 131.5780 80° East 520 598 33,000  Level FlightAware
05:26 36.4040 131.6890 89° East 519 597 33,000  Level FlightAware
05:27 36.4060 131.7990 89° East 519 597 33,000  Level FlightAware
05:27 36.4080 131.9120 89° East 519 597 33,000  Level FlightAware
05:28 36.4100 132.0170 89° East 519 597 33,000  Level FlightAware
05:29 36.4110 132.1270 89° East 519 597 33,000  Level FlightAware
05:29 36.4130 132.2690 89° East 519 597 33,000  Level FlightAware
05:30 36.4150 132.3920 89° East 520 598 33,000  Level FlightAware
05:31 36.4150 132.4890 90° East 520 598 33,000  Level FlightAware
05:31 36.4180 132.6390 89° East 520 598 33,000 360 Level FlightAware
05:32 36.4190 132.7460 89° East 520 598 33,500 660 Climbing FlightAware
05:33 36.4200 132.8510 89° East 524 603 33,800 480 Climbing FlightAware
05:33 36.4210 132.9560 89° East 525 604 34,100 480 Climbing FlightAware
05:34 36.4210 133.0620 90° East 529 609 34,400 480 Climbing FlightAware
05:34 36.4220 133.1670 89° East 530 610 34,700 480 Climbing FlightAware
05:35 36.4220 133.2690 90° East 530 610 35,000 240 Climbing FlightAware
05:36 36.4230 133.3770 89° East 529 609 35,000  Level FlightAware
05:36 36.4230 133.4830 90° East 529 609 35,000  Level FlightAware
05:37 36.4240 133.5920 89° East 529 609 35,000  Level FlightAware
05:37 36.4240 133.7100 90° East 529 609 35,000  Level FlightAware
05:38 36.4240 133.8120 90° East 530 610 35,000  Level FlightAware
05:39 36.4240 133.9310 90° East 530 610 35,000  Level FlightAware
05:39 36.4240 134.0290 90° East 529 609 35,000  Level FlightAware
05:40 36.4230 134.1420 91° East 528 608 35,000  Level FlightAware
05:40 36.4230 134.2550 90° East 528 608 35,000  Level FlightAware
05:41 36.4230 134.3550 90° East 528 608 35,000  Level FlightAware
05:41 36.4220 134.4530 91° East 528 608 35,000  Level FlightAware
05:42 36.4220 134.5570 90° East 528 608 35,000  Level FlightAware
05:43 36.4210 134.6790 91° East 528 608 35,000  Level FlightAware
05:43 36.4200 134.7770 91° East 528 608 35,000  Level FlightAware
05:44 36.4190 134.8790 91° East 527 606 35,000  Level FlightAware
05:44 36.4180 134.9870 91° East 527 606 35,000  Level FlightAware
05:45 36.4170 135.0870 91° East 527 606 35,000  Level FlightAware
05:46 36.4160 135.2010 91° East 526 605 35,000  Level FlightAware
05:46 36.4150 135.3100 91° East 526 605 35,000  Level FlightAware
05:47 36.4140 135.4130 91° East 527 606 35,000  Level FlightAware
05:47 36.4120 135.5380 91° East 527 606 35,000  Level FlightAware
05:48 36.4100 135.6730 91° East 527 606 35,000  Level FlightAware
05:49 36.4090 135.7570 91° East 527 606 35,000  Level FlightAware
05:49 36.4060 135.8840 92° East 526 605 35,000  Level FlightAware
05:50 36.4050 135.9900 91° East 526 605 35,000  Level FlightAware
05:51 36.4030 136.1070 91° East 525 604 35,000  Level FlightAware
05:51 36.4010 136.2090 91° East 525 604 35,000  Level FlightAware
05:52 36.3980 136.3280 92° East 525 604 35,000  Level FlightAware
05:52 36.4000 136.4210 88° East 523 602 35,000  Level FlightAware
05:53 36.4090 136.5290 84° East 522 601 35,000  Level FlightAware
05:53 36.4190 136.6220 82° East 522 601 35,000  Level FlightAware
05:54 36.4280 136.7130 83° East 522 601 35,000  Level FlightAware
05:55 36.4410 136.8380 83° East 521 600 35,000  Level FlightAware
05:55 36.4560 136.9830 83° East 521 600 35,000  Level FlightAware
05:56 36.4670 137.0910 83° East 521 600 35,000  Level FlightAware
05:57 36.4750 137.1800 84° East 522 601 35,000  Level FlightAware
05:57 36.4870 137.2980 83° East 523 602 35,000  Level FlightAware
05:58 36.4990 137.4170 83° East 523 602 35,000  Level FlightAware
05:58 36.5080 137.5180 84° East 523 602 35,000  Level FlightAware
05:59 36.5190 137.6270 83° East 523 602 35,000  Level FlightAware
06:00 36.5280 137.7300 84° East 523 602 35,000  Level FlightAware
06:00 36.5380 137.8320 83° East 523 602 35,000  Level FlightAware
06:01 36.5480 137.9370 83° East 524 603 35,000  Level FlightAware
06:01 36.5600 138.0430 82° East 525 604 35,000  Level FlightAware
06:02 36.5900 138.1710 74° East 524 603 35,000  Level FlightAware
06:03 36.6080 138.2580 76° East 524 603 35,000  Level FlightAware
06:03 36.6300 138.3630 75° East 523 602 35,000  Level FlightAware
06:04 36.6530 138.4720 75° East 523 602 35,000  Level FlightAware
06:04 36.6750 138.5800 76° East 522 601 35,000  Level FlightAware
06:05 36.6940 138.6670 75° East 522 601 35,000  Level FlightAware
06:06 36.7150 138.7690 76° East 523 602 35,000  Level FlightAware
06:06 36.7360 138.8710 76° East 523 602 35,000  Level FlightAware
06:07 36.7580 138.9710 75° East 523 602 35,000  Level FlightAware
06:07 36.7790 139.0700 75° East 524 603 35,000  Level FlightAware
06:08 36.8000 139.1670 75° East 525 604 35,000  Level FlightAware
06:09 36.8250 139.2930 76° East 526 605 35,000  Level FlightAware
06:09 36.8350 139.3820 82° East 528 608 35,000  Level FlightAware
06:10 36.8470 139.4970 83° East 527 606 35,000  Level FlightAware
06:10 36.8570 139.6040 83° East 528 608 35,000  Level FlightAware
06:11 36.8640 139.7050 85° East 529 609 35,000  Level FlightAware
06:11 36.8730 139.8140 84° East 528 608 35,000  Level FlightAware
06:12 36.8810 139.9230 85° East 526 605 35,000  Level FlightAware
06:13 36.8890 140.0340 85° East 524 603 35,000  Level FlightAware
06:13 36.8970 140.1380 84° East 524 603 35,000  Level FlightAware
06:14 36.9030 140.2320 85° East 523 602 35,000  Level FlightAware
06:14 36.9120 140.3440 84° East 522 601 35,000  Level FlightAware
06:15 36.9210 140.4520 84° East 521 600 35,000  Level FlightAware
06:15 36.9290 140.5470 84° East 522 601 35,000  Level FlightAware
06:16 36.9370 140.6550 85° East 522 601 35,000  Level FlightAware
06:17 36.9450 140.7710 85° East 522 601 35,000  Level FlightAware
06:17 36.9530 140.8780 85° East 521 600 35,000  Level FlightAware
06:18 36.9590 140.9710 85° East 522 601 35,000  Level FlightAware
06:18 36.9670 141.0770 85° East 522 601 35,000  Level FlightAware
06:19 36.9740 141.1870 85° East 522 601 35,000  Level FlightAware
06:20 36.9820 141.2970 85° East 523 602 35,000  Level FlightAware
06:20 36.9880 141.3900 85° East 523 602 35,000  Level FlightAware
06:21 36.9950 141.4950 85° East 520 598 35,000  Level FlightAware
06:21 37.0030 141.6080 85° East 521 600 35,000  Level FlightAware
06:22 37.0090 141.7020 85° East 521 600 35,000  Level FlightAware
06:23 37.0150 141.8080 86° East 520 598 35,000  Level FlightAware
06:23 37.0220 141.9130 85° East 521 600 35,000  Level FlightAware
06:24 37.0280 142.0060 85° East 521 600 35,000  Level FlightAware
06:24 37.0350 142.1270 86° East 519 597 35,000  Level FlightAware
06:25 37.0410 142.2210 85° East 518 596 35,000  Level FlightAware
06:25 37.0480 142.3310 85° East 518 596 35,000  Level FlightAware
06:26 37.0540 142.4330 86° East 518 596 35,000  Level FlightAware
06:27 37.0620 142.5870 86° East 519 597 35,000  Level FlightAware
06:27 37.0680 142.6830 85° East 519 597 35,000  Level FlightAware
06:28 37.0740 142.8000 86° East 519 597 35,000  Level FlightAware
06:29 37.0790 142.8900 86° East 520 598 35,000  Level FlightAware
06:29 37.0860 143.0070 86° East 520 598 35,000  Level FlightAware
06:30 37.0910 143.1170 87° East 520 598 35,000  Level FlightAware
06:30 37.0960 143.1960 85° East 520 598 35,000  Level FlightAware
06:31 37.1010 143.3110 87° East 518 596 35,000  Level FlightAware
06:32 37.1070 143.4260 86° East 516 594 35,000  Level FlightAware
06:32 37.1120 143.5250 86° East 517 595 35,000  Level FlightAware
06:33 37.1180 143.6410 86° East 517 595 35,000  Level FlightAware
06:33 37.1220 143.7350 87° East 517 595 35,000  Level FlightAware
06:34 37.1260 143.8180 87° East 518 596 35,000  Level FlightAware
06:34 37.1320 143.9530 87° East 519 597 35,000  Level FlightAware
06:35 37.1390 144.1090 87° East 520 598 35,000  Level FlightAware
06:36 37.1440 144.2220 87° East 523 602 35,000  Level FlightAware
06:37 37.1490 144.3420 87° East 524 603 35,000  Level FlightAware
06:37 37.1540 144.4470 87° East 526 605 35,000  Level FlightAware
06:38 37.1590 144.5830 87° East 528 608 35,000  Level FlightAware
06:39 37.1640 144.7060 87° East 528 608 35,000  Level FlightAware
06:39 37.1680 144.8130 87° East 529 609 35,000  Level FlightAware
06:40 37.1710 144.9000 87° East 529 609 35,000  Level FlightAware
06:40 37.1760 145.0300 87° East 529 609 35,000  Level FlightAware
06:41 37.1810 145.1610 87° East 532 612 35,000  Level FlightAware
06:42 37.1840 145.2640 88° East 532 612 35,000  Level FlightAware
06:42 37.1890 145.3920 87° East 533 613 35,000  Level FlightAware
06:43 37.1930 145.5310 88° East 533 613 35,000  Level FlightAware
06:44 37.1980 145.6350 87° East 533 613 35,000  Level FlightAware
06:44 37.2130 145.7480 81° East 532 612 35,000  Level FlightAware
06:45 37.2440 145.8730 73° East 530 610 35,000  Level FlightAware
06:46 37.2640 145.9600 74° East 531 611 35,000  Level FlightAware
06:46 37.2860 146.0540 74° East 531 611 35,000  Level FlightAware
06:47 37.3060 146.1450 75° East 531 611 35,000  Level FlightAware
06:47 37.3270 146.2350 74° East 531 611 35,000  Level FlightAware
06:48 37.3480 146.3290 74° East 531 611 35,000  Level FlightAware
06:49 37.3690 146.4200 74° East 531 611 35,000  Level FlightAware
06:49 37.3900 146.5110 74° East 531 611 35,000  Level FlightAware
06:50 37.4100 146.6020 75° East 531 611 35,000  Level FlightAware
06:50 37.4310 146.6930 74° East 531 611 35,000  Level FlightAware
06:51 37.4520 146.7840 74° East 531 611 35,000  Level FlightAware
06:52 37.4730 146.8770 74° East 531 611 35,000  Level FlightAware
06:52 37.4940 146.9680 74° East 531 611 35,000  Level FlightAware
06:53 37.5140 147.0590 74° East 531 611 35,000  Level FlightAware
06:53 37.5350 147.1510 74° East 531 611 35,000  Level FlightAware
06:54 37.5560 147.2420 74° East 531 611 35,000  Level FlightAware
06:55 37.5770 147.3330 74° East 531 611 35,000  Level FlightAware
06:57 37.6461 147.6665 75° East  Level FlightAware Approximate
06:58 37.6818 147.8407 75° East  Level FlightAware Approximate
06:59 37.7172 148.0152 76° East  Level FlightAware Approximate
07:00 37.7524 148.1897 76° East  Level FlightAware Approximate
07:01 37.7873 148.3645 76° East  Level FlightAware Approximate
07:02 37.8219 148.5394 76° East  Level FlightAware Approximate
07:03 37.8563 148.7144 76° East  Level FlightAware Approximate
07:04 37.8905 148.8897 76° East  Level FlightAware Approximate
07:05 37.9243 149.0651 76° East  Level FlightAware Approximate
07:06 37.9580 149.2406 76° East  Level FlightAware Approximate
07:07 37.9913 149.4164 76° East  Level FlightAware Approximate
07:08 38.0244 149.5922 77° East  Level FlightAware Approximate
07:09 38.0572 149.7683 77° East  Level FlightAware Approximate
07:10 38.0898 149.9445 77° East  Level FlightAware Approximate
07:11 38.1486 150.1075 60° Northeast  Level FlightAware Approximate
07:12 38.2194 150.2648 60° Northeast  Level FlightAware Approximate
07:13 38.2901 150.4223 60° Northeast  Level FlightAware Approximate
07:14 38.3605 150.5802 60° Northeast  Level FlightAware Approximate
07:15 38.4307 150.7384 60° Northeast  Level FlightAware Approximate
07:16 38.5006 150.8969 61° Northeast  Level FlightAware Approximate
07:17 38.5708 151.0555 60° Northeast  Level FlightAware Approximate
07:18 38.6408 151.2142 61° Northeast  Level FlightAware Approximate
07:19 38.7107 151.3733 61° Northeast  Level FlightAware Approximate
07:20 38.7803 151.5327 61° Northeast  Level FlightAware Approximate
07:21 38.8497 151.6924 61° Northeast  Level FlightAware Approximate
07:22 38.9189 151.8524 61° Northeast  Level FlightAware Approximate
07:23 38.9878 152.0127 61° Northeast  Level FlightAware Approximate
07:24 39.0566 152.1733 61° Northeast  Level FlightAware Approximate
07:25 39.1251 152.3343 61° Northeast  Level FlightAware Approximate
07:26 39.1934 152.4955 61° Northeast  Level FlightAware Approximate
07:27 39.2615 152.6571 61° Northeast  Level FlightAware Approximate
07:28 39.3293 152.8190 62° Northeast  Level FlightAware Approximate
07:29 39.3969 152.9812 62° Northeast  Level FlightAware Approximate
07:30 39.4644 153.1437 62° Northeast  Level FlightAware Approximate
07:31 39.5315 153.3065 62° Northeast  Level FlightAware Approximate
07:32 39.5985 153.4696 62° Northeast  Level FlightAware Approximate
07:33 39.6652 153.6331 62° Northeast  Level FlightAware Approximate
07:34 39.7317 153.7968 62° Northeast  Level FlightAware Approximate
07:35 39.7980 153.9609 62° Northeast  Level FlightAware Approximate
07:36 39.8640 154.1253 62° Northeast  Level FlightAware Approximate
07:37 39.9298 154.2901 62° Northeast  Level FlightAware Approximate
07:38 39.9953 154.4551 63° Northeast  Level FlightAware Approximate
07:39 40.0607 154.6204 63° Northeast  Level FlightAware Approximate
07:40 40.1258 154.7861 63° Northeast  Level FlightAware Approximate
07:41 40.1906 154.9521 63° Northeast  Level FlightAware Approximate
07:42 40.2552 155.1184 63° Northeast  Level FlightAware Approximate
07:43 40.3196 155.2850 63° Northeast  Level FlightAware Approximate
07:44 40.3838 155.4520 63° Northeast  Level FlightAware Approximate
07:45 40.4477 155.6192 63° Northeast  Level FlightAware Approximate
07:46 40.5113 155.7868 63° Northeast  Level FlightAware Approximate
07:47 40.5747 155.9547 64° Northeast  Level FlightAware Approximate
07:48 40.6379 156.1229 64° Northeast  Level FlightAware Approximate
07:49 40.7008 156.2914 64° Northeast  Level FlightAware Approximate
07:50 40.7635 156.4602 64° Northeast  Level FlightAware Approximate
07:51 40.8259 156.6294 64° Northeast  Level FlightAware Approximate
07:52 40.8881 156.7989 64° Northeast  Level FlightAware Approximate
07:53 40.9501 156.9687 64° Northeast  Level FlightAware Approximate
07:54 41.0118 157.1388 64° Northeast  Level FlightAware Approximate
07:55 41.0732 157.3092 64° Northeast  Level FlightAware Approximate
07:56 41.1344 157.4800 65° Northeast  Level FlightAware Approximate
07:57 41.1953 157.6511 65° Northeast  Level FlightAware Approximate
07:58 41.2560 157.8224 65° Northeast  Level FlightAware Approximate
07:59 41.3166 157.9941 65° Northeast  Level FlightAware Approximate
08:00 41.3771 158.1659 65° Northeast  Level FlightAware Approximate
08:01 41.4373 158.3380 65° Northeast  Level FlightAware Approximate
08:02 41.4973 158.5105 65° Northeast  Level FlightAware Approximate
08:03 41.5570 158.6833 65° Northeast  Level FlightAware Approximate
08:04 41.6164 158.8564 65° Northeast  Level FlightAware Approximate
08:05 41.6756 159.0298 65° Northeast  Level FlightAware Approximate
08:06 41.7346 159.2036 66° East  Level FlightAware Approximate
08:07 41.7932 159.3776 66° East  Level FlightAware Approximate
08:08 41.8516 159.5520 66° East  Level FlightAware Approximate
08:09 41.9098 159.7267 66° East  Level FlightAware Approximate
08:10 41.9677 159.9017 66° East  Level FlightAware Approximate
08:11 42.0199 160.0799 71° East  Level FlightAware Approximate
08:12 42.0649 160.2619 72° East  Level FlightAware Approximate
08:13 42.1097 160.4441 72° East  Level FlightAware Approximate
08:14 42.1542 160.6267 72° East  Level FlightAware Approximate
08:15 42.1983 160.8094 72° East  Level FlightAware Approximate
08:16 42.2422 160.9925 72° East  Level FlightAware Approximate
08:17 42.2858 161.1757 72° East  Level FlightAware Approximate
08:18 42.3291 161.3593 72° East  Level FlightAware Approximate
08:19 42.3722 161.5431 72° East  Level FlightAware Approximate
08:20 42.4149 161.7271 72° East  Level FlightAware Approximate
08:21 42.4573 161.9114 73° East  Level FlightAware Approximate
08:22 42.4994 162.0959 73° East  Level FlightAware Approximate
08:23 42.5412 162.2807 73° East  Level FlightAware Approximate
08:24 42.5828 162.4658 73° East  Level FlightAware Approximate
08:25 42.6240 162.6510 73° East  Level FlightAware Approximate
08:26 42.6650 162.8366 73° East  Level FlightAware Approximate
08:27 42.7056 163.0223 73° East  Level FlightAware Approximate
08:28 42.7459 163.2083 73° East  Level FlightAware Approximate
08:29 42.7860 163.3946 74° East  Level FlightAware Approximate
08:30 42.8257 163.5811 74° East  Level FlightAware Approximate
08:31 42.8652 163.7678 74° East  Level FlightAware Approximate
08:31 43.1000 164.9167 75° East 543 625 35,000  Level Oakland Oceanic (ODAPS)
08:32 42.9043 163.9548 74° East  Level FlightAware Approximate
08:33 42.9431 164.1420 74° East  Level FlightAware Approximate
08:34 42.9816 164.3294 74° East  Level FlightAware Approximate
08:35 43.0198 164.5171 74° East  Level FlightAware Approximate
08:36 43.0577 164.7050 75° East  Level FlightAware Approximate
08:37 43.0953 164.8931 75° East  Level FlightAware Approximate
08:38 43.3746 166.3245 75° East 543 625 35,000  Level FlightAware Transoceanic
08:39 43.4124 166.5266 76° East 543 625 35,000  Level FlightAware Transoceanic
08:40 43.4499 166.7290 76° East 543 625 35,000  Level FlightAware Transoceanic
08:41 43.4870 166.9317 76° East 543 625 35,000  Level FlightAware Transoceanic
08:42 43.5237 167.1346 76° East 543 625 35,000  Level FlightAware Transoceanic
08:42 43.5167 167.1000 76° East 534 615 35,000  Level Oakland Oceanic (ODAPS)
08:43 43.5601 167.3377 76° East 543 625 35,000  Level FlightAware Transoceanic
08:44 43.5961 167.5411 76° East 543 625 35,000  Level FlightAware Transoceanic
08:45 43.6318 167.7447 76° East 543 625 35,000  Level FlightAware Transoceanic
08:46 43.6671 167.9485 77° East 543 625 35,000  Level FlightAware Transoceanic
08:47 43.7020 168.1527 77° East 543 625 35,000  Level FlightAware Transoceanic
08:48 43.7188 168.2543 77° East 534 615 35,000  Level FlightAware Transoceanic
08:49 43.7513 168.4475 77° East 534 615 35,000  Level FlightAware Transoceanic
08:50 43.7836 168.6408 77° East 534 615 35,000  Level FlightAware Transoceanic
08:51 43.8155 168.8344 77° East 534 615 35,000  Level FlightAware Transoceanic
08:52 43.8470 169.0282 77° East 534 615 35,000  Level FlightAware Transoceanic
08:53 43.8783 169.2221 77° East 534 615 35,000  Level FlightAware Transoceanic
08:54 43.9092 169.4163 78° East 534 615 35,000  Level FlightAware Transoceanic
08:55 43.9398 169.6107 78° East 534 615 35,000  Level FlightAware Transoceanic
08:56 43.9701 169.8052 78° East 534 615 35,000  Level FlightAware Transoceanic
08:56 43.9833 169.8667 80° East 544 626 35,000  Level Oakland Oceanic (ODAPS)
08:56 44.0000 170.0000 71° East 540 621 35,000  Level Oakland Oceanic (ODAPS)
08:57 44.0000 170.0000 71° East 534 615 35,000  Level FlightAware Transoceanic
08:58 44.0494 170.1968 71° East 534 615 35,000  Level FlightAware Transoceanic
08:59 44.0984 170.3939 71° East 534 615 35,000  Level FlightAware Transoceanic
09:00 44.1470 170.5913 71° East 534 615 35,000  Level FlightAware Transoceanic
09:01 44.1954 170.7891 71° East 534 615 35,000  Level FlightAware Transoceanic
09:02 44.2433 170.9872 71° East 544 626 35,000  Level FlightAware Transoceanic
09:03 44.2910 171.1856 72° East 540 621 35,000  Level FlightAware Transoceanic
09:04 44.3383 171.3843 72° East 540 621 35,000  Level FlightAware Transoceanic
09:05 44.3852 171.5833 72° East 540 621 35,000  Level FlightAware Transoceanic
09:06 44.4319 171.7827 72° East 540 621 35,000  Level FlightAware Transoceanic
09:07 44.4781 171.9824 72° East 540 621 35,000  Level FlightAware Transoceanic
09:08 44.5240 172.1824 72° East 540 621 35,000  Level FlightAware Transoceanic
09:09 44.5696 172.3827 72° East 540 621 35,000  Level FlightAware Transoceanic
09:10 44.6148 172.5833 73° East 540 621 35,000 840 Level FlightAware Transoceanic
09:10 44.6167 172.6167 72° East 543 625 36,000  Climbing Oakland Oceanic (ODAPS)
09:11 44.6597 172.7843 73° East 540 621 35,000 -600 Descending FlightAware Transoceanic
09:12 44.7042 172.9855 73° East 540 621 35,000  Level FlightAware Transoceanic
09:13 44.7483 173.1871 73° East 540 621 35,000  Level FlightAware Transoceanic
09:14 44.7921 173.3889 73° East 540 621 35,000  Level FlightAware Transoceanic
09:15 44.8356 173.5911 73° East 540 621 35,000 480 Level FlightAware Transoceanic
09:16 44.8799 173.8215 73° East 543 625 36,000 480 Climbing FlightAware Transoceanic
09:17 44.9226 174.0234 73° East 543 625 36,000  Level FlightAware Transoceanic
09:18 44.9648 174.2255 74° East 543 625 36,000  Level FlightAware Transoceanic
09:19 45.0067 174.4280 74° East 543 625 36,000  Level FlightAware Transoceanic
09:20 45.0483 174.6308 74° East 543 625 36,000  Level FlightAware Transoceanic
09:21 45.0895 174.8338 74° East 543 625 36,000  Level FlightAware Transoceanic
09:22 45.1304 175.0371 74° East 543 625 36,000  Level FlightAware Transoceanic
09:23 45.1709 175.2408 74° East 543 625 36,000  Level FlightAware Transoceanic
09:24 45.2110 175.4447 74° East 543 625 36,000  Level FlightAware Transoceanic
09:24 45.2000 175.4167 74° East 543 625 36,000  Level Oakland Oceanic (ODAPS)
09:25 45.2507 175.6489 75° East 543 625 36,000  Level FlightAware Transoceanic
09:26 45.2901 175.8534 75° East 543 625 36,000  Level FlightAware Transoceanic
09:27 45.3292 176.0582 75° East 543 625 36,000  Level FlightAware Transoceanic
09:28 45.3678 176.2632 75° East 543 625 36,000  Level FlightAware Transoceanic
09:29 45.4061 176.4686 75° East 543 625 36,000  Level FlightAware Transoceanic
09:30 45.4363 176.6535 75° East 543 625 36,000  Level FlightAware Transoceanic
09:31 45.4744 176.8607 75° East 543 625 36,000  Level FlightAware Transoceanic
09:32 45.5121 177.0681 76° East 543 625 36,000  Level FlightAware Transoceanic
09:33 45.5494 177.2758 76° East 543 625 36,000  Level FlightAware Transoceanic
09:34 45.5863 177.4837 76° East 543 625 36,000  Level FlightAware Transoceanic
09:35 45.6229 177.6920 76° East 543 625 36,000  Level FlightAware Transoceanic
09:36 45.6591 177.9005 76° East 543 625 36,000  Level FlightAware Transoceanic
09:37 45.6949 178.1093 76° East 543 625 36,000  Level FlightAware Transoceanic
09:37 45.7167 178.2167 77° East 531 611 36,000  Level Oakland Oceanic (ODAPS)
09:38 45.7304 178.3183 76° East 543 625 36,000  Level FlightAware Transoceanic
09:39 45.7654 178.5276 77° East 543 625 36,000  Level FlightAware Transoceanic
09:40 45.8001 178.7372 77° East 543 625 36,000  Level FlightAware Transoceanic
09:41 45.8344 178.9470 77° East 543 625 36,000  Level FlightAware Transoceanic
09:42 45.8683 179.1571 77° East 543 625 36,000  Level FlightAware Transoceanic
09:43 45.9018 179.3675 77° East 543 625 36,000  Level FlightAware Transoceanic
09:44 45.9318 179.5525 77° East 531 611 36,000  Level FlightAware Transoceanic
09:45 45.9661 179.7761 78° East 531 611 36,000  Level FlightAware Transoceanic
09:46 46.0000 -180.0000 78° East 531 611 36,000  Level FlightAware Transoceanic
09:46 46.0000 180.0000 78° East 541 623 36,000  Level Oakland Oceanic (ODAPS)
09:47 46.0303 -179.7915 78° East 531 611 36,000  Level FlightAware Transoceanic
09:48 46.0601 -179.5829 78° East 531 611 36,000  Level FlightAware Transoceanic
09:49 46.0896 -179.3740 79° East 531 611 36,000  Level FlightAware Transoceanic
09:50 46.1187 -179.1648 79° East 531 611 36,000  Level FlightAware Transoceanic
09:51 46.1474 -178.9555 79° East 531 611 36,000  Level FlightAware Transoceanic
09:51 46.1500 -178.8833 79° East 544 626 36,000  Level Oakland Oceanic (ODAPS)
09:52 46.1758 -178.7459 79° East 541 623 36,000  Level FlightAware Transoceanic
09:53 46.2037 -178.5361 79° East 541 623 36,000  Level FlightAware Transoceanic
09:54 46.2313 -178.3262 79° East 541 623 36,000  Level FlightAware Transoceanic
09:55 46.2585 -178.1160 79° East 541 623 36,000  Level FlightAware Transoceanic
09:56 46.2853 -177.9055 80° East 541 623 36,000  Level FlightAware Transoceanic
09:57 46.3117 -177.6949 80° East 541 623 36,000  Level FlightAware Transoceanic
09:58 46.3171 -177.6023 80° East 544 626 36,000  Level FlightAware Transoceanic
09:59 46.3435 -177.3880 80° East 544 626 36,000  Level FlightAware Transoceanic
10:00 46.3695 -177.1736 80° East 544 626 36,000  Level FlightAware Transoceanic
10:01 46.3952 -176.9589 80° East 544 626 36,000  Level FlightAware Transoceanic
10:02 46.4204 -176.7440 80° East 544 626 36,000  Level FlightAware Transoceanic
10:03 46.4453 -176.5289 81° East 544 626 36,000  Level FlightAware Transoceanic
10:04 46.4697 -176.3137 81° East 544 626 36,000  Level FlightAware Transoceanic
10:05 46.4937 -176.0982 81° East 544 626 36,000  Level FlightAware Transoceanic
10:05 46.5167 -175.9500 81° East 541 623 36,000  Level Oakland Oceanic (ODAPS)
10:06 46.5174 -175.8826 81° East 544 626 36,000  Level FlightAware Transoceanic
10:07 46.5406 -175.6668 81° East 544 626 36,000  Level FlightAware Transoceanic
10:08 46.5634 -175.4508 81° East 544 626 36,000  Level FlightAware Transoceanic
10:09 46.5858 -175.2346 82° East 544 626 36,000  Level FlightAware Transoceanic
10:10 46.6078 -175.0182 82° East 544 626 36,000  Level FlightAware Transoceanic
10:11 46.6294 -174.8017 82° East 544 626 36,000  Level FlightAware Transoceanic
10:12 46.6506 -174.6375 82° East 541 623 36,000  Level FlightAware Transoceanic
10:13 46.6715 -174.4182 82° East 541 623 36,000  Level FlightAware Transoceanic
10:14 46.6920 -174.1986 82° East 541 623 36,000  Level FlightAware Transoceanic
10:15 46.7120 -173.9789 83° East 541 623 36,000  Level FlightAware Transoceanic
10:16 46.7316 -173.7591 83° East 541 623 36,000  Level FlightAware Transoceanic
10:17 46.7508 -173.5391 83° East 541 623 36,000  Level FlightAware Transoceanic
10:18 46.7695 -173.3189 83° East 541 623 36,000  Level FlightAware Transoceanic
10:19 46.7879 -173.0986 83° East 541 623 36,000 660 Level FlightAware Transoceanic
10:19 46.8000 -173.0000 83° East 533 613 37,000  Climbing Oakland Oceanic (ODAPS)
10:20 46.8058 -172.8781 83° East 541 623 36,000 -720 Descending FlightAware Transoceanic
10:21 46.8233 -172.6575 83° East 541 623 36,000  Level FlightAware Transoceanic
10:22 46.8404 -172.4367 84° East 541 623 36,000  Level FlightAware Transoceanic
10:23 46.8570 -172.2158 84° East 541 623 36,000  Level FlightAware Transoceanic
10:24 46.8732 -171.9948 84° East 541 623 36,000 480 Level FlightAware Transoceanic
10:25 46.8953 -171.7171 84° East 533 613 37,000 480 Climbing FlightAware Transoceanic
10:26 46.9098 -171.5028 84° East 533 613 37,000  Level FlightAware Transoceanic
10:27 46.9239 -171.2884 85° East 533 613 37,000  Level FlightAware Transoceanic
10:28 46.9376 -171.0739 85° East 533 613 37,000  Level FlightAware Transoceanic
10:29 46.9509 -170.8594 85° East 533 613 37,000  Level FlightAware Transoceanic
10:30 46.9637 -170.6447 85° East 533 613 37,000  Level FlightAware Transoceanic
10:31 46.9762 -170.4299 85° East 533 613 37,000  Level FlightAware Transoceanic
10:32 46.9883 -170.2150 85° East 533 613 37,000  Level FlightAware Transoceanic
10:33 47.0000 -170.0000 95° East 533 613 37,000  Level FlightAware Transoceanic
10:33 47.0000 -170.0833 90° East 508 585 37,000  Level Oakland Oceanic (ODAPS)
10:33 47.0000 -170.0000 95° East 540 621 37,000  Level Oakland Oceanic (ODAPS)
10:34 46.9876 -169.7792 95° East 533 613 37,000  Level FlightAware Transoceanic
10:35 46.9748 -169.5585 95° East 533 613 37,000  Level FlightAware Transoceanic
10:36 46.9616 -169.3379 95° East 533 613 37,000  Level FlightAware Transoceanic
10:37 46.9480 -169.1175 95° East 533 613 37,000  Level FlightAware Transoceanic
10:38 46.9339 -168.8971 95° East 533 613 37,000  Level FlightAware Transoceanic
10:39 46.9323 -168.8726 95° East 508 585 37,000  Level FlightAware Transoceanic
10:40 46.9194 -168.6769 96° East 540 621 37,000  Level FlightAware Transoceanic
10:41 46.9045 -168.4567 96° East 540 621 37,000  Level FlightAware Transoceanic
10:42 46.8892 -168.2367 96° East 540 621 37,000  Level FlightAware Transoceanic
10:43 46.8735 -168.0169 96° East 540 621 37,000  Level FlightAware Transoceanic
10:44 46.8573 -167.7971 96° East 540 621 37,000  Level FlightAware Transoceanic
10:45 46.8407 -167.5775 96° East 540 621 37,000  Level FlightAware Transoceanic
10:46 46.8237 -167.3581 97° East 540 621 37,000  Level FlightAware Transoceanic
10:47 46.8063 -167.1387 97° East 540 621 37,000  Level FlightAware Transoceanic
10:47 46.8000 -167.1667 97° East 548 631 37,000  Level Oakland Oceanic (ODAPS)
10:48 46.7884 -166.9196 97° East 540 621 37,000  Level FlightAware Transoceanic
10:49 46.7702 -166.7005 97° East 540 621 37,000  Level FlightAware Transoceanic
10:50 46.7515 -166.4816 97° East 540 621 37,000  Level FlightAware Transoceanic
10:51 46.7324 -166.2629 97° East 540 621 37,000  Level FlightAware Transoceanic
10:52 46.7129 -166.0443 98° East 540 621 37,000  Level FlightAware Transoceanic
10:53 46.6881 -165.8488 98° East 548 631 37,000  Level FlightAware Transoceanic
10:54 46.6679 -165.6297 98° East 548 631 37,000  Level FlightAware Transoceanic
10:55 46.6474 -165.4108 98° East 548 631 37,000  Level FlightAware Transoceanic
10:56 46.6264 -165.1921 98° East 548 631 37,000  Level FlightAware Transoceanic
10:57 46.6050 -164.9735 98° East 548 631 37,000  Level FlightAware Transoceanic
10:58 46.5833 -164.7551 98° East 548 631 37,000  Level FlightAware Transoceanic
10:59 46.5611 -164.5368 98° East 548 631 37,000  Level FlightAware Transoceanic
11:00 46.5384 -164.3188 99° East 548 631 37,000  Level FlightAware Transoceanic
11:01 46.5154 -164.1009 99° East 548 631 37,000  Level FlightAware Transoceanic
11:01 46.5333 -164.2000 99° East 546 628 37,000  Level Oakland Oceanic (ODAPS)
11:02 46.4919 -163.8832 99° East 548 631 37,000  Level FlightAware Transoceanic
11:03 46.4681 -163.6657 99° East 548 631 37,000  Level FlightAware Transoceanic
11:04 46.4438 -163.4484 99° East 548 631 37,000  Level FlightAware Transoceanic
11:05 46.4191 -163.2313 99° East 548 631 37,000  Level FlightAware Transoceanic
11:06 46.3940 -163.0144 100° East 548 631 37,000  Level FlightAware Transoceanic
11:07 46.3895 -162.9316 100° East 546 628 37,000  Level FlightAware Transoceanic
11:08 46.3642 -162.7208 100° East 546 628 37,000  Level FlightAware Transoceanic
11:09 46.3385 -162.5103 100° East 546 628 37,000  Level FlightAware Transoceanic
11:10 46.3124 -162.2999 100° East 546 628 37,000  Level FlightAware Transoceanic
11:11 46.2859 -162.0898 100° East 546 628 37,000  Level FlightAware Transoceanic
11:12 46.2590 -161.8798 101° East 546 628 37,000  Level FlightAware Transoceanic
11:13 46.2318 -161.6701 101° East 546 628 37,000  Level FlightAware Transoceanic
11:14 46.2041 -161.4606 101° East 546 628 37,000  Level FlightAware Transoceanic
11:15 46.1761 -161.2513 101° East 546 628 37,000  Level FlightAware Transoceanic
11:15 46.1833 -161.2500 101° East 551 634 37,000  Level Oakland Oceanic (ODAPS)
11:16 46.1477 -161.0422 101° East 546 628 37,000  Level FlightAware Transoceanic
11:17 46.1189 -160.8333 101° East 546 628 37,000  Level FlightAware Transoceanic
11:18 46.0898 -160.6246 101° East 546 628 37,000  Level FlightAware Transoceanic
11:19 46.0602 -160.4162 102° East 546 628 37,000  Level FlightAware Transoceanic
11:20 46.0303 -160.2080 102° East 546 628 37,000  Level FlightAware Transoceanic
11:20 46.0000 -160.0000 95° East 549 632 37,000  Level Oakland Oceanic (ODAPS)
11:21 46.0000 -160.0000 95° East 551 634 37,000  Level FlightAware Transoceanic
11:22 45.9879 -159.7840 95° East 551 634 37,000  Level FlightAware Transoceanic
11:23 45.9754 -159.5681 95° East 551 634 37,000  Level FlightAware Transoceanic
11:24 45.9625 -159.3523 95° East 551 634 37,000  Level FlightAware Transoceanic
11:25 45.9492 -159.1367 95° East 551 634 37,000  Level FlightAware Transoceanic
11:26 45.9355 -158.9211 95° East 551 634 37,000  Level FlightAware Transoceanic
11:27 45.9195 -158.6775 95° East 549 632 37,000  Level FlightAware Transoceanic
11:28 45.9046 -158.4575 96° East 549 632 37,000  Level FlightAware Transoceanic
11:28 45.8833 -158.2333 96° East 553 636 37,000  Level Oakland Oceanic (ODAPS)
11:29 45.8893 -158.2376 96° East 549 632 37,000  Level FlightAware Transoceanic
11:30 45.8736 -158.0178 96° East 549 632 37,000  Level FlightAware Transoceanic
11:31 45.8574 -157.7981 96° East 549 632 37,000  Level FlightAware Transoceanic
11:32 45.8408 -157.5786 96° East 549 632 37,000  Level FlightAware Transoceanic
11:33 45.8238 -157.3592 96° East 549 632 37,000  Level FlightAware Transoceanic
11:34 45.8064 -157.1400 97° East 549 632 37,000  Level FlightAware Transoceanic
11:35 45.7835 -156.9174 97° East 553 636 37,000  Level FlightAware Transoceanic
11:36 45.7654 -156.6985 97° East 553 636 37,000  Level FlightAware Transoceanic
11:37 45.7468 -156.4798 97° East 553 636 37,000  Level FlightAware Transoceanic
11:38 45.7279 -156.2613 97° East 553 636 37,000  Level FlightAware Transoceanic
11:39 45.7085 -156.0428 97° East 553 636 37,000  Level FlightAware Transoceanic
11:40 45.6888 -155.8246 97° East 553 636 37,000  Level FlightAware Transoceanic
11:41 45.6686 -155.6065 98° East 553 636 37,000  Level FlightAware Transoceanic
11:42 45.6480 -155.3885 98° East 553 636 37,000  Level FlightAware Transoceanic
11:42 45.6333 -155.2167 98° East 558 642 37,000  Level Oakland Oceanic (ODAPS)
11:43 45.6269 -155.1708 98° East 553 636 37,000  Level FlightAware Transoceanic
11:44 45.6055 -154.9531 98° East 553 636 37,000  Level FlightAware Transoceanic
11:45 45.5837 -154.7357 98° East 553 636 37,000  Level FlightAware Transoceanic
11:46 45.5614 -154.5184 98° East 553 636 37,000  Level FlightAware Transoceanic
11:47 45.5387 -154.3013 99° East 553 636 37,000  Level FlightAware Transoceanic
11:48 45.5157 -154.0844 99° East 553 636 37,000  Level FlightAware Transoceanic
11:49 45.4973 -153.9019 99° East 558 642 37,000  Level FlightAware Transoceanic
11:50 45.4732 -153.6834 99° East 558 642 37,000  Level FlightAware Transoceanic
11:51 45.4487 -153.4651 99° East 558 642 37,000  Level FlightAware Transoceanic
11:52 45.4237 -153.2469 99° East 558 642 37,000  Level FlightAware Transoceanic
11:53 45.3983 -153.0290 99° East 558 642 37,000  Level FlightAware Transoceanic
11:54 45.3726 -152.8113 100° East 558 642 37,000  Level FlightAware Transoceanic
11:55 45.3464 -152.5938 100° East 558 642 37,000  Level FlightAware Transoceanic
11:56 45.3198 -152.3764 100° East 558 642 37,000  Level FlightAware Transoceanic
11:56 45.3000 -152.2500 100° East 547 629 37,000  Level Oakland Oceanic (ODAPS)
11:57 45.2927 -152.1593 100° East 558 642 37,000  Level FlightAware Transoceanic
11:58 45.2653 -151.9424 100° East 558 642 37,000  Level FlightAware Transoceanic
11:59 45.2374 -151.7257 100° East 558 642 37,000  Level FlightAware Transoceanic
12:00 45.2092 -151.5092 101° East 558 642 37,000  Level FlightAware Transoceanic
12:01 45.1805 -151.2929 101° East 558 642 37,000  Level FlightAware Transoceanic
12:02 45.1515 -151.0769 101° East 558 642 37,000  Level FlightAware Transoceanic
12:03 45.1142 -150.8154 101° East 547 629 37,000  Level FlightAware Transoceanic
12:04 45.0862 -150.6113 101° East 547 629 37,000  Level FlightAware Transoceanic
12:05 45.0578 -150.4073 101° East 547 629 37,000  Level FlightAware Transoceanic
12:06 45.0291 -150.2036 101° East 547 629 37,000  Level FlightAware Transoceanic
12:07 45.0000 -150.0000 94° East 547 629 37,000  Level FlightAware Transoceanic
12:07 45.0000 -150.0000 94° East 522 601 37,000  Level Oakland Oceanic (ODAPS)
12:08 44.9889 -149.8011 95° East 547 629 37,000  Level FlightAware Transoceanic
12:09 44.9774 -149.6022 95° East 547 629 37,000  Level FlightAware Transoceanic
12:10 44.9656 -149.4034 95° East 547 629 37,000  Level FlightAware Transoceanic
12:10 44.9667 -149.3833 95° East 517 595 37,000  Level Oakland Oceanic (ODAPS)
12:11 44.9534 -149.2047 95° East 547 629 37,000  Level FlightAware Transoceanic
12:12 44.9409 -149.0061 95° East 547 629 37,000  Level FlightAware Transoceanic
12:13 44.9265 -148.7837 95° East 522 601 37,000  Level FlightAware Transoceanic
12:14 44.9130 -148.5813 95° East 522 601 37,000  Level FlightAware Transoceanic
12:15 44.8991 -148.3790 96° East 522 601 37,000  Level FlightAware Transoceanic
12:16 44.8882 -148.1950 96° East 517 595 37,000  Level FlightAware Transoceanic
12:17 44.8740 -147.9972 96° East 517 595 37,000  Level FlightAware Transoceanic
12:18 44.8593 -147.7996 96° East 517 595 37,000  Level FlightAware Transoceanic
12:19 44.8444 -147.6021 96° East 517 595 37,000  Level FlightAware Transoceanic
12:20 44.8291 -147.4046 96° East 517 595 37,000  Level FlightAware Transoceanic
12:21 44.8135 -147.2073 96° East 517 595 37,000  Level FlightAware Transoceanic
12:22 44.7975 -147.0101 97° East 517 595 37,000  Level FlightAware Transoceanic
12:23 44.7812 -146.8130 97° East 517 595 37,000  Level FlightAware Transoceanic
12:24 44.7645 -146.6160 97° East 517 595 37,000  Level FlightAware Transoceanic
12:24 44.7667 -146.6000 97° East 501 577 37,000  Level Oakland Oceanic (ODAPS)
12:25 44.7475 -146.4191 97° East 517 595 37,000  Level FlightAware Transoceanic
12:26 44.7302 -146.2223 97° East 517 595 37,000  Level FlightAware Transoceanic
12:27 44.7125 -146.0257 97° East 517 595 37,000  Level FlightAware Transoceanic
12:28 44.6945 -145.8292 97° East 517 595 37,000  Level FlightAware Transoceanic
12:29 44.6762 -145.6328 98° East 517 595 37,000  Level FlightAware Transoceanic
12:30 44.6624 -145.4569 98° East 501 577 37,000  Level FlightAware Transoceanic
12:31 44.6439 -145.2668 98° East 501 577 37,000  Level FlightAware Transoceanic
12:32 44.6251 -145.0768 98° East 501 577 37,000  Level FlightAware Transoceanic
12:33 44.6060 -144.8869 98° East 501 577 37,000  Level FlightAware Transoceanic
12:34 44.5866 -144.6972 98° East 501 577 37,000  Level FlightAware Transoceanic
12:35 44.5668 -144.5076 98° East 501 577 37,000  Level FlightAware Transoceanic
12:36 44.5468 -144.3181 99° East 501 577 37,000  Level FlightAware Transoceanic
12:37 44.5264 -144.1288 99° East 501 577 37,000  Level FlightAware Transoceanic
12:38 44.5057 -143.9395 99° East 501 577 37,000  Level FlightAware Transoceanic
12:38 44.5000 -143.9833 99° East 494 568 37,000  Level Oakland Oceanic (ODAPS)
12:39 44.4847 -143.7505 99° East 501 577 37,000  Level FlightAware Transoceanic
12:40 44.4634 -143.5615 99° East 501 577 37,000  Level FlightAware Transoceanic
12:41 44.4418 -143.3727 99° East 501 577 37,000  Level FlightAware Transoceanic
12:42 44.4199 -143.1841 99° East 501 577 37,000  Level FlightAware Transoceanic
12:43 44.3976 -142.9955 99° East 501 577 37,000  Level FlightAware Transoceanic
12:44 44.3713 -142.8385 99° East 494 568 37,000  Level FlightAware Transoceanic
12:45 44.3488 -142.6481 99° East 494 568 37,000  Level FlightAware Transoceanic
12:46 44.3259 -142.4580 100° East 494 568 37,000  Level FlightAware Transoceanic
12:47 44.3027 -142.2679 100° East 494 568 37,000  Level FlightAware Transoceanic
12:48 44.2792 -142.0781 100° East 494 568 37,000  Level FlightAware Transoceanic
12:49 44.2554 -141.8884 100° East 494 568 37,000  Level FlightAware Transoceanic
12:50 44.2312 -141.6988 100° East 494 568 37,000  Level FlightAware Transoceanic
12:51 44.2068 -141.5094 100° East 494 568 37,000  Level FlightAware Transoceanic
12:52 44.1820 -141.3201 100° East 494 568 37,000  Level FlightAware Transoceanic
12:52 44.2000 -141.3833 101° East 495 570 37,000  Level Oakland Oceanic (ODAPS)
12:53 44.1570 -141.1311 101° East 494 568 37,000  Level FlightAware Transoceanic
12:54 44.1316 -140.9421 101° East 494 568 37,000  Level FlightAware Transoceanic
12:55 44.1059 -140.7534 101° East 494 568 37,000  Level FlightAware Transoceanic
12:56 44.0799 -140.5648 101° East 494 568 37,000  Level FlightAware Transoceanic
12:57 44.0536 -140.3763 101° East 494 568 37,000  Level FlightAware Transoceanic
12:58 44.0296 -140.1970 102° East 495 570 37,000  Level FlightAware Transoceanic
12:59 44.0000 -140.0000 109° East 495 570 37,000  Level FlightAware Transoceanic
12:59 44.0000 -140.0000 109° East 495 570 37,000  Level Oakland Oceanic (ODAPS)
13:00 43.9559 -139.8196 109° East 495 570 37,000  Level FlightAware Transoceanic
13:01 43.9115 -139.6394 109° East 495 570 37,000  Level FlightAware Transoceanic
13:02 43.8668 -139.4595 109° East 495 570 37,000  Level FlightAware Transoceanic
13:03 43.8218 -139.2799 109° East 495 570 37,000  Level FlightAware Transoceanic
13:04 43.7766 -139.1006 109° East 495 570 37,000  Level FlightAware Transoceanic
13:05 43.7311 -138.9215 109° East 495 570 37,000  Level FlightAware Transoceanic
13:05 43.7167 -138.8500 110° East 492 566 37,000  Level Oakland Oceanic (ODAPS)
13:06 43.6853 -138.7427 110° East 495 570 37,000  Level FlightAware Transoceanic
13:07 43.6392 -138.5642 110° East 495 570 37,000  Level FlightAware Transoceanic
13:08 43.5928 -138.3860 110° East 495 570 37,000  Level FlightAware Transoceanic
13:09 43.5462 -138.2080 110° East 495 570 37,000  Level FlightAware Transoceanic
13:10 43.4993 -138.0303 110° East 495 570 37,000  Level FlightAware Transoceanic
13:11 43.4521 -137.8529 110° East 495 570 37,000  Level FlightAware Transoceanic
13:12 43.4388 -137.7901 110° East 492 566 37,000  Level FlightAware Transoceanic
13:13 43.3915 -137.6144 110° East 492 566 37,000  Level FlightAware Transoceanic
13:14 43.3440 -137.4390 111° Southeast 492 566 37,000  Level FlightAware Transoceanic
13:15 43.2962 -137.2639 111° Southeast 492 566 37,000  Level FlightAware Transoceanic
13:16 43.2481 -137.0890 111° Southeast 492 566 37,000  Level FlightAware Transoceanic
13:17 43.1998 -136.9144 111° Southeast 492 566 37,000  Level FlightAware Transoceanic
13:18 43.1512 -136.7401 111° Southeast 492 566 37,000  Level FlightAware Transoceanic
13:19 43.1023 -136.5661 111° Southeast 492 566 37,000  Level FlightAware Transoceanic
13:19 43.0500 -136.4000 111° Southeast 490 564 37,000  Level Oakland Oceanic (ODAPS)
13:20 43.0532 -136.3923 111° Southeast 492 566 37,000  Level FlightAware Transoceanic
13:21 43.0038 -136.2188 111° Southeast 492 566 37,000  Level FlightAware Transoceanic
13:22 42.9542 -136.0456 111° Southeast 492 566 37,000  Level FlightAware Transoceanic
13:23 42.9042 -135.8727 112° Southeast 492 566 37,000  Level FlightAware Transoceanic
13:24 42.8541 -135.7001 112° Southeast 492 566 37,000  Level FlightAware Transoceanic
13:25 42.8036 -135.5277 112° Southeast 492 566 37,000  Level FlightAware Transoceanic
13:26 42.7503 -135.3621 112° Southeast 490 564 37,000  Level FlightAware Transoceanic
13:27 42.6995 -135.1902 112° Southeast 490 564 37,000  Level FlightAware Transoceanic
13:28 42.6484 -135.0184 112° Southeast 490 564 37,000  Level FlightAware Transoceanic
13:29 42.5970 -134.8470 112° Southeast 490 564 37,000  Level FlightAware Transoceanic
13:30 42.5454 -134.6759 112° Southeast 490 564 37,000  Level FlightAware Transoceanic
13:31 42.4935 -134.5050 112° Southeast 490 564 37,000  Level FlightAware Transoceanic
13:32 42.4414 -134.3344 113° Southeast 490 564 37,000  Level FlightAware Transoceanic
13:33 42.3890 -134.1641 113° Southeast 490 564 37,000  Level FlightAware Transoceanic
13:33 42.3500 -134.0333 113° Southeast 485 558 37,000  Level Oakland Oceanic (ODAPS)
13:34 42.3364 -133.9941 113° Southeast 490 564 37,000  Level FlightAware Transoceanic
13:35 42.2835 -133.8244 113° Southeast 490 564 37,000  Level FlightAware Transoceanic
13:36 42.2303 -133.6550 113° Southeast 490 564 37,000  Level FlightAware Transoceanic
13:37 42.1770 -133.4858 113° Southeast 490 564 37,000  Level FlightAware Transoceanic
13:38 42.1233 -133.3169 113° Southeast 490 564 37,000  Level FlightAware Transoceanic
13:39 42.0695 -133.1483 113° Southeast 490 564 37,000  Level FlightAware Transoceanic
13:40 42.0258 -133.0092 113° Southeast 485 558 37,000  Level FlightAware Transoceanic
13:41 41.9709 -132.8395 114° Southeast 485 558 37,000  Level FlightAware Transoceanic
13:42 41.9157 -132.6701 114° Southeast 485 558 37,000  Level FlightAware Transoceanic
13:43 41.8603 -132.5010 114° Southeast 485 558 37,000  Level FlightAware Transoceanic
13:44 41.8047 -132.3322 114° Southeast 485 558 37,000  Level FlightAware Transoceanic
13:45 41.7488 -132.1637 114° Southeast 485 558 37,000  Level FlightAware Transoceanic
13:46 41.6926 -131.9955 114° Southeast 485 558 37,000  Level FlightAware Transoceanic
13:47 41.6362 -131.8276 114° Southeast 485 558 37,000  Level FlightAware Transoceanic
13:47 41.6167 -131.7667 114° Southeast 483 556 37,000  Level Oakland Oceanic (ODAPS)
13:48 41.5796 -131.6600 114° Southeast 485 558 37,000  Level FlightAware Transoceanic
13:49 41.5227 -131.4926 114° Southeast 485 558 37,000  Level FlightAware Transoceanic
13:50 41.4656 -131.3256 115° Southeast 485 558 37,000  Level FlightAware Transoceanic
13:51 41.4082 -131.1589 115° Southeast 485 558 37,000  Level FlightAware Transoceanic
13:52 41.3506 -130.9924 115° Southeast 485 558 37,000  Level FlightAware Transoceanic
13:53 41.2928 -130.8263 115° Southeast 485 558 37,000  Level FlightAware Transoceanic
13:54 41.2274 -130.6386 115° Southeast 483 556 37,000  Level FlightAware Transoceanic
13:55 41.1708 -130.4785 115° Southeast 483 556 37,000  Level FlightAware Transoceanic
13:56 41.1141 -130.3187 115° Southeast 483 556 37,000  Level FlightAware Transoceanic
13:57 41.0572 -130.1592 115° Southeast 483 556 37,000  Level FlightAware Transoceanic
13:58 41.0000 -130.0000 106° East 483 556 37,000  Level FlightAware Transoceanic
13:59 40.9632 -129.8317 106° East 483 556 37,000  Level FlightAware Transoceanic
14:00 40.9261 -129.6636 106° East 483 556 37,000  Level FlightAware Transoceanic
14:01 40.8887 -129.4957 106° East 483 556 37,000  Level FlightAware Transoceanic
14:02 40.8512 -129.3279 107° East 483 556 37,000  Level FlightAware Transoceanic
14:03 40.8134 -129.1604 107° East 483 556 37,000  Level FlightAware Transoceanic
14:04 40.7753 -128.9930 107° East 483 556 37,000  Level FlightAware Transoceanic
14:05 40.7370 -128.8259 107° East 483 556 37,000  Level FlightAware Transoceanic
14:06 40.6985 -128.6589 107° East 483 556 37,000  Level FlightAware Transoceanic
14:07 40.6597 -128.4921 107° East 483 556 37,000  Level FlightAware Transoceanic
14:08 40.6207 -128.3255 107° East 483 556 37,000  Level FlightAware Transoceanic
14:09 40.5814 -128.1592 107° East 483 556 37,000  Level FlightAware Transoceanic
14:10 40.5419 -127.9930 107° East 483 556 37,000  Level FlightAware Transoceanic
14:11 40.5022 -127.8270 108° East 483 556 37,000  Level FlightAware Transoceanic
14:12 40.4622 -127.6612 108° East 483 556 37,000  Level FlightAware Transoceanic
14:13 40.4220 -127.4956 108° East 483 556 37,000 600 Level FlightAware Transoceanic
14:13 40.4217 -127.4875 125° Southeast 486 559 38,000  Climbing Oakland Center
14:14 40.3816 -127.3302 108° East 483 556 37,000  Descending FlightAware Transoceanic
14:14 40.3789 -127.3206 109° East 485 558 38,000  Climbing Oakland Center
14:15 40.3409 -127.1650 108° East 483 556 37,000  Descending FlightAware Transoceanic
14:15 40.3386 -127.1528 107° East 485 558 38,000 540 Climbing Oakland Center
14:16 40.2609 -127.0135 125° Southeast  Level Estimated
14:16 40.2878 -126.9531 108° East 484 557 38,000  Level Oakland Center
14:17 40.1807 -126.8623 125° Southeast  Level Estimated
14:17 40.2281 -126.7953 116° Southeast 484 557 38,000  Level Oakland Center
14:18 40.1003 -126.7115 125° Southeast  Level Estimated
14:23 39.7880 -125.9530 116° Southeast 487 560 38,000  Level FlightAware
14:24 39.7500 -125.8820 125° Southeast 487 560 38,000  Level FlightAware
14:24 39.7040 -125.7950 124° Southeast 487 560 38,000  Level FlightAware
14:25 39.6610 -125.7150 125° Southeast 487 560 38,000  Level FlightAware
14:25 39.6250 -125.6470 124° Southeast 487 560 38,000  Level FlightAware
14:26 39.5740 -125.5500 124° Southeast 488 562 38,000  Level FlightAware
14:26 39.5380 -125.4790 123° Southeast 488 562 38,000  Level FlightAware
14:27 39.4990 -125.4050 124° Southeast 488 562 38,000  Level FlightAware
14:28 39.4460 -125.3110 126° Southeast 487 560 38,000  Level FlightAware
14:28 39.3990 -125.2220 124° Southeast 487 560 38,000  Level FlightAware
14:29 39.3390 -125.1140 126° Southeast 484 557 38,000  Level FlightAware
14:29 39.2900 -125.0240 125° Southeast 489 563 38,000  Level FlightAware
14:30 39.2470 -124.9440 125° Southeast 488 562 38,000  Level FlightAware
14:31 39.2000 -124.8580 125° Southeast 488 562 38,000  Level FlightAware
14:31 39.1530 -124.7710 125° Southeast 488 562 38,000  Level FlightAware
14:32 39.1060 -124.6860 125° Southeast 488 562 38,000  Level FlightAware
14:32 39.0640 -124.6100 125° Southeast 488 562 38,000  Level FlightAware
14:33 39.0140 -124.5200 126° Southeast 488 562 38,000  Level FlightAware
14:34 38.9670 -124.4340 125° Southeast 487 560 38,000 -120 Level FlightAware
14:34 38.9250 -124.3580 125° Southeast 484 557 37,900 -660 Descending FlightAware
14:35 38.8800 -124.2760 125° Southeast 479 551 37,300 -1,260 Descending FlightAware
14:35 38.8380 -124.2010 126° Southeast 482 555 36,500 -1,500 Descending FlightAware
14:36 38.7910 -124.1170 126° Southeast 483 556 35,600 -2,100 Descending FlightAware
14:36 38.7470 -124.0390 126° Southeast 485 558 34,100 -2,580 Descending FlightAware
14:37 38.6970 -123.9500 126° Southeast 483 556 32,500 -2,400 Descending FlightAware
14:38 38.6550 -123.8740 125° Southeast 475 547 31,300 -2,160 Descending FlightAware
14:38 38.6080 -123.7900 126° Southeast 467 537 30,000 -2,100 Descending FlightAware
14:39 38.5660 -123.7170 126° Southeast 461 531 28,900 -2,160 Descending FlightAware
14:39 38.5210 -123.6380 126° Southeast 453 521 27,600 -2,100 Descending FlightAware
14:40 38.4780 -123.5620 126° Southeast 446 513 26,400 -1,980 Descending FlightAware
14:41 38.4370 -123.4900 126° Southeast 439 505 25,300 -2,040 Descending FlightAware
14:41 38.3960 -123.4180 126° Southeast 433 498 24,100 -2,040 Descending FlightAware
14:42 38.3530 -123.3420 126° Southeast 426 490 22,900 -1,980 Descending FlightAware
14:42 38.3100 -123.2680 127° Southeast 419 482 21,700 -1,980 Descending FlightAware
14:43 38.2760 -123.2080 126° Southeast 415 478 20,700 -2,040 Descending FlightAware
14:44 38.2340 -123.1350 126° Southeast 409 471 19,400 -2,160 Descending FlightAware
14:44 38.1960 -123.0690 126° Southeast 404 465 18,200 -2,160 Descending FlightAware
14:45 38.1590 -123.0050 126° Southeast 401 461 17,000 -2,220 Descending FlightAware
14:45 38.1190 -122.9360 126° Southeast 392 451 15,700 -1,980 Descending FlightAware
14:46 38.0820 -122.8750 128° Southeast 364 419 14,600 -1,860 Descending FlightAware
14:46 38.0430 -122.8280 136° Southeast 342 394 13,600 -1,980 Descending FlightAware
14:47 37.9990 -122.7800 139° Southeast 349 402 12,400 -1,920 Descending FlightAware
14:48 37.9570 -122.7350 140° Southeast 350 403 11,400 -1,320 Descending FlightAware
14:48 37.9140 -122.6890 140° Southeast 332 382 10,900 -420 Descending FlightAware
14:49 37.8720 -122.6440 140° Southeast 309 356 10,900  Level FlightAware
14:49 37.8390 -122.6080 139° Southeast 298 343 10,900  Level FlightAware
14:50 37.8204 -122.5880 140° Southeast 284 327 10,900  Level FlightAware ADS-B
14:50 37.7734 -122.5380 140° Southeast 270 311 10,900  Level FlightAware ADS-B
14:51 37.7466 -122.5100 140° Southeast 252 290 10,900  Level FlightAware ADS-B
14:51 37.7165 -122.4770 139° Southeast 252 290 10,900  Level FlightAware ADS-B
14:52 37.6746 -122.4330 140° Southeast 253 291 10,900  Level FlightAware ADS-B
14:53 37.6475 -122.4040 140° Southeast 253 291 10,900  Level FlightAware ADS-B
14:53 37.6196 -122.3740 140° Southeast 253 291 10,900  Level FlightAware ADS-B
14:54 37.5965 -122.3560 148° Southeast 251 289 10,900 -1,020 Level FlightAware ADS-B
14:54 37.5650 -122.3360 153° Southeast 245 282 10,000 -1,920 Descending FlightAware ADS-B
14:54 37.5508 -122.3280 156° South 243 280 9,500 -2,100 Descending FlightAware ADS-B
14:55 37.5386 -122.3200 153° Southeast 244 281 9,100 -2,040 Descending FlightAware ADS-B
14:55 37.5332 -122.3170 156° South 245 282 8,900 -2,040 Descending FlightAware ADS-B
14:55 37.5299 -122.3160 166° South 244 281 8,800 -1,740 Descending FlightAware ADS-B
14:55 37.5248 -122.3150 171° South 245 282 8,700 -1,500 Descending FlightAware ADS-B
14:55 37.5205 -122.3150 180° South 243 280 8,600 -1,500 Descending FlightAware ADS-B
14:55 37.5162 -122.3150 180° South 242 278 8,500 -1,200 Descending FlightAware ADS-B
14:55 37.5094 -122.3170 193° South 242 278 8,400 -1,200 Descending FlightAware ADS-B
14:55 37.4930 -122.3230 196° South 241 277 8,100 -1,200 Descending FlightAware ADS-B
14:56 37.4760 -122.3290 196° South 242 278 7,800 -1,020 Descending FlightAware ADS-B
14:56 37.4606 -122.3340 194° South 242 278 7,600 -960 Descending FlightAware ADS-B
14:56 37.4554 -122.3350 189° South 242 278 7,500 -1,440 Descending FlightAware ADS-B
14:56 37.4467 -122.3350 180° South 241 277 7,300 -1,440 Descending FlightAware ADS-B
14:56 37.4413 -122.3340 172° South 238 274 7,200 -780 Descending FlightAware ADS-B
14:56 37.4380 -122.3320 154° Southeast 238 274 7,200 -780 Level FlightAware ADS-B
14:56 37.4338 -122.3290 150° Southeast 235 270 7,100 -720 Descending FlightAware ADS-B
14:56 37.4304 -122.3260 145° Southeast 232 267 7,100 -780 Level FlightAware ADS-B
14:56 37.4273 -122.3220 134° Southeast 230 265 7,000 -900 Descending FlightAware ADS-B
14:56 37.4252 -122.3190 131° Southeast 228 262 7,000  Level FlightAware ADS-B
14:57 37.4230 -122.3140 119° Southeast 226 260 7,000 -960 Level FlightAware ADS-B
14:57 37.4159 -122.2970 118° Southeast 218 251 6,700 -1,020 Descending FlightAware ADS-B
14:57 37.4095 -122.2790 114° Southeast 211 243 6,500 -720 Descending FlightAware ADS-B
14:57 37.4047 -122.2670 117° Southeast 206 237 6,400 -660 Descending FlightAware ADS-B
14:57 37.4023 -122.2600 113° Southeast 204 235 6,300 -1,020 Descending FlightAware ADS-B
14:58 37.3956 -122.2320 107° East 200 230 5,900 -600 Descending FlightAware ADS-B
14:58 37.3917 -122.2150 106° East 200 230 5,900  Level FlightAware ADS-B
14:58 37.3884 -122.2000 105° East 200 230 5,900  Level FlightAware ADS-B
14:58 37.3847 -122.1830 105° East 201 231 5,900  Level FlightAware ADS-B
14:59 37.3810 -122.1660 105° East 201 231 5,900  Level FlightAware ADS-B
14:59 37.3782 -122.1530 105° East 201 231 5,900  Level FlightAware ADS-B
14:59 37.3773 -122.1470 101° East 200 230 5,900  Level FlightAware ADS-B
14:59 37.3769 -122.1420 96° East 200 230 5,900  Level FlightAware ADS-B
14:59 37.3771 -122.1380 86° East 199 229 5,900  Level FlightAware ADS-B
14:59 37.3778 -122.1330 80° East 200 230 5,900  Level FlightAware ADS-B
14:59 37.3787 -122.1300 69° East 200 230 5,900  Level FlightAware ADS-B
14:59 37.3803 -122.1240 71° East 200 230 5,900  Level FlightAware ADS-B
14:59 37.3840 -122.1140 65° Northeast 200 230 5,900  Level FlightAware ADS-B
15:00 37.3900 -122.0990 63° Northeast 201 231 5,900  Level FlightAware ADS-B
15:00 37.3967 -122.0800 66° East 200 230 5,900  Level FlightAware ADS-B
15:00 37.4000 -122.0730 59° Northeast 200 230 5,900  Level FlightAware ADS-B
15:00 37.4020 -122.0690 58° Northeast 200 230 5,900  Level FlightAware ADS-B
15:00 37.4040 -122.0670 38° Northeast 199 229 5,900  Level FlightAware ADS-B
15:00 37.4068 -122.0640 40° Northeast 201 231 5,900  Level FlightAware ADS-B
15:00 37.4109 -122.0610 30° Northeast 201 231 5,900  Level FlightAware ADS-B
15:00 37.4145 -122.0590 24° Northeast 201 231 5,900 -720 Level FlightAware ADS-B
15:01 37.4188 -122.0580 10° North 201 231 5,800 -900 Descending FlightAware ADS-B
15:01 37.4324 -122.0530 16° North 200 230 5,600 -960 Descending FlightAware ADS-B
15:01 37.4413 -122.0500 15° North 199 229 5,400 -1,200 Descending FlightAware ADS-B
15:01 37.4455 -122.0490 11° North 198 228 5,300 -1,500 Descending FlightAware ADS-B
15:01 37.4482 -122.0480 16° North 198 228 5,200 -900 Descending FlightAware ADS-B
15:01 37.4522 -122.0480 360° North 197 227 5,200 -780 Level FlightAware ADS-B
15:01 37.4558 -122.0490 348° North 197 227 5,100 -1,740 Descending FlightAware ADS-B
15:01 37.4586 -122.0500 344° North 196 226 5,000 -1,500 Descending FlightAware ADS-B
15:01 37.4624 -122.0520 337° Northwest 196 226 4,900 -780 Descending FlightAware ADS-B
15:01 37.4649 -122.0530 342° North 196 226 4,900 -720 Level FlightAware ADS-B
15:02 37.4697 -122.0560 334° Northwest 197 227 4,800 -1,380 Descending FlightAware ADS-B
15:02 37.4722 -122.0580 328° Northwest 199 229 4,700 -1,740 Descending FlightAware ADS-B
15:02 37.4750 -122.0600 330° Northwest 199 229 4,600 -1,380 Descending FlightAware ADS-B
15:02 37.4787 -122.0650 313° West 199 229 4,500 -1,020 Descending FlightAware ADS-B
15:02 37.4867 -122.0750 315° West 195 224 4,300 -1,020 Descending FlightAware ADS-B
15:02 37.4935 -122.0840 314° West 193 222 4,100 -840 Descending FlightAware ADS-B
15:02 37.4959 -122.0870 315° West 193 222 4,100 -900 Level FlightAware ADS-B
15:02 37.4977 -122.0900 307° West 192 221 4,000 -1,200 Descending FlightAware ADS-B
15:02 37.5018 -122.0970 306° West 191 220 3,900 -720 Descending FlightAware ADS-B
15:03 37.5070 -122.1070 303° West 194 223 3,800 -720 Descending FlightAware ADS-B
15:03 37.5142 -122.1220 301° West 192 221 3,600 -900 Descending FlightAware ADS-B
15:03 37.5198 -122.1340 300° West 192 221 3,400 -900 Descending FlightAware ADS-B
15:03 37.5259 -122.1480 299° West 191 220 3,200 -840 Descending FlightAware ADS-B
15:03 37.5318 -122.1620 298° West 190 219 3,000 -840 Descending FlightAware ADS-B
15:04 37.5379 -122.1770 297° West 187 215 2,800 -720 Descending FlightAware ADS-B
15:04 37.5427 -122.1890 297° West 182 209 2,700 -660 Descending FlightAware ADS-B
15:04 37.5487 -122.2030 298° West 182 209 2,500 -840 Descending FlightAware ADS-B
15:04 37.5540 -122.2160 297° West 180 207 2,300 -840 Descending FlightAware ADS-B
15:05 37.5604 -122.2310 298° West 179 206 2,100 -780 Descending FlightAware ADS-B
15:05 37.5661 -122.2450 297° West 173 199 1,900 -780 Descending FlightAware ADS-B
15:05 37.5717 -122.2580 299° West 158 182 1,700 -780 Descending FlightAware ADS-B
15:05 37.5769 -122.2700 299° West 153 176 1,500 -840 Descending FlightAware ADS-B
15:06 37.5817 -122.2810 299° West 138 159 1,300 -780 Descending FlightAware ADS-B
15:06 37.5841 -122.2870 297° West 136 157 1,200 -720 Descending FlightAware ADS-B
15:06 37.5896 -122.3000 298° West 135 155 1,000 -840 Descending FlightAware ADS-B
15:07 37.5974 -122.3190 297° West 127 146 600 -720 Descending FlightAware ADS-B
15:07 37.6015 -122.3280 300° West 124 143 500 -480 Descending FlightAware ADS-B
15:07 37.6039 -122.3340 297° West 123 142 400 -720 Descending FlightAware ADS-B
15:07 37.6060 -122.3390 298° West 125 144 300 -720 Descending FlightAware ADS-B
15:07 37.6083 -122.3450 296° West 124 143 200 -900 Descending FlightAware ADS-B
15:07 37.6097 -122.3480 301° West 124 143 100 -1,200 Descending FlightAware ADS-B
15:08 37.6123 -122.3540 299° West 125 144 -720 Descending FlightAware ADS-B
15:08 37.6168 -122.3650 297° West 110 127  Level FlightAware ADS-B